Buoy 51523

sailwx.info

Track history (hours):
 
Tides and Currents Weather Stations Pressure Air Temp Water Temp Dewpoint Dewpoint Depression Visibility Wind Speed Wind Dir Waves Ship Positions

Drifting buoy 51523

Last reported at 2015-Aug-02 17:00 UTC. Time now 2015-Aug-02 20:25 UTC.
Position N 18°14' W 164°49'.

Water temperature 28.3 ° C

Date/timePositionNaut miles runAvg speedWind from/ knotsBaromVisibWave heightAir tempDewpointWater temp
2015-Aug-02 17:00N 18°14' W 164°49'0 0.3 28.3
2015-Aug-02 16:30N 18°14' W 164°49'0 0.3 28.3
2015-Aug-02 15:30N 18°14' W 164°49'0 0.0 28.3
2015-Aug-02 15:15N 18°14' W 164°49'0 0.5 28.3
2015-Aug-02 14:30N 18°14' W 164°49'1 0.5 28.3
2015-Aug-02 13:00N 18°14' W 164°49'0 0.0 28.3
2015-Aug-02 12:45N 18°14' W 164°49'1 0.5 28.3
2015-Aug-02 09:45N 18°12' W 164°48'0 0.6 28.3
2015-Aug-02 09:00N 18°12' W 164°47'0 0.0 28.3
2015-Aug-02 08:45N 18°12' W 164°47'0 0.3 28.3
2015-Aug-02 08:00N 18°12' W 164°48'0 0.0 28.4
2015-Aug-02 07:45N 18°12' W 164°48'1 1.0 28.4
2015-Aug-02 07:15N 18°12' W 164°47'0 0.0 28.4
2015-Aug-02 07:00N 18°12' W 164°47'1 0.4 28.4
2015-Aug-02 05:30N 18°12' W 164°47'0 0.0 28.4
2015-Aug-02 05:15N 18°12' W 164°47'0 0.8 28.4
2015-Aug-02 04:45N 18°12' W 164°46'0 0.0 28.5
2015-Aug-02 04:30N 18°12' W 164°46'1 3.8 28.5
2015-Aug-02 04:15N 18°11' W 164°45'1 1.5 28.5
2015-Aug-02 03:45N 18°11' W 164°46'0 0.2 28.5
2015-Aug-02 03:00N 18°11' W 164°46'0 0.0 28.5
2015-Aug-02 02:45N 18°11' W 164°46'0 0.5 28.5
2015-Aug-02 02:00N 18°11' W 164°46'0 0.2 28.5
2015-Aug-02 00:30N 18°11' W 164°45'1 3.0 28.4
2015-Aug-02 00:15N 18°12' W 164°45'1 0.3 28.4
2015-Aug-01 21:45N 18°12' W 164°44'0 0.0 28.3
2015-Aug-01 21:30N 18°12' W 164°44'0 0.0 28.3
2015-Aug-01 20:45N 18°12' W 164°44'1 2.2 28.3
2015-Aug-01 20:15N 18°13' W 164°44'1 3.5 28.3
2015-Aug-01 20:00N 18°12' W 164°44'1 1.2 28.3
2015-Aug-01 19:15N 18°13' W 164°44'0 0.0 28.3
2015-Aug-01 19:00N 18°13' W 164°44'0 0.0 28.3
2015-Aug-01 17:30N 18°13' W 164°44'0 0.0 28.3
2015-Aug-01 17:15N 18°13' W 164°44'0 0.5 28.3
2015-Aug-01 17:00N 18°13' W 164°44'1 0.7 28.3
2015-Aug-01 15:30N 18°13' W 164°45'0 0.0 28.3
2015-Aug-01 15:15N 18°13' W 164°45'0 0.0 28.3
2015-Aug-01 13:15N 18°13' W 164°45'1 3.7 28.3
2015-Aug-01 13:00N 18°13' W 164°45'0 0.0 28.3
2015-Aug-01 08:30N 18°13' W 164°45'0 1.0 28.4
2015-Aug-01 08:15N 18°12' W 164°45'0 0.3 28.4
2015-Aug-01 06:45N 18°12' W 164°45'0 0.0 28.4
2015-Aug-01 06:00N 18°12' W 164°45'0 0.0 28.4
2015-Aug-01 05:45N 18°12' W 164°45'1 1.7 28.4
2015-Aug-01 05:00N 18°11' W 164°45'0 0.0 28.4
2015-Aug-01 04:45N 18°11' W 164°45'6 0.5 28.4
2015-Jul-31 16:00N 18°06' W 164°40'313.3 28.3
2015-Jul-31 15:45N 18°06' W 164°37'0 0.0 28.3
2015-Jul-31 13:15N 18°06' W 164°37'0 0.0 28.3
2015-Jul-31 08:45N 18°06' W 164°37'1 0.8 28.3
2015-Jul-31 08:00N 18°06' W 164°36'1 2.7 28.4
2015-Jul-31 07:45N 18°06' W 164°35'1 0.2 28.3
2015-Jul-31 05:00N 18°06' W 164°35'0 0.0 28.4
2015-Jul-31 04:00N 18°06' W 164°35'1 1.4 28.4
2015-Jul-31 03:00N 18°05' W 164°34'1 0.1 28.4
2015-Jul-30 19:45N 18°04' W 164°33'0 0.1 28.3
2015-Jul-30 16:00N 18°04' W 164°33'1 1.3 28.3
2015-Jul-30 15:00N 18°03' W 164°33'3 1.0 28.3
2015-Jul-30 11:45N 18°00' W 164°32'0 0.1 28.3
2015-Jul-30 09:00N 18°00' W 164°32'1 1.3 28.3
2015-Jul-30 08:00N 17°59' W 164°31'6 0.8 28.3
2015-Jul-30 01:00N 17°57' W 164°25'0 0.0 28.4
2015-Jul-30 00:45N 17°57' W 164°25'2 0.3 28.4
2015-Jul-29 17:15N 17°56' W 164°23'0 0.9 28.3
2015-Jul-29 17:00N 17°56' W 164°24'0 1.4 28.3
2015-Jul-29 16:45N 17°56' W 164°23'1 1.0 28.3
2015-Jul-29 16:00N 17°56' W 164°23'2 0.5 28.3
2015-Jul-29 12:00N 17°56' W 164°21'1 0.3 28.3
2015-Jul-29 08:45N 17°56' W 164°20'0 0.0 28.4
2015-Jul-29 08:30N 17°56' W 164°20'1 0.7 28.4
2015-Jul-29 07:45N 17°56' W 164°19'0 0.5 28.4
2015-Jul-29 07:00N 17°56' W 164°19'0 0.0 28.4
2015-Jul-29 06:45N 17°56' W 164°19'0 0.0 28.4
2015-Jul-29 06:00N 17°56' W 164°19'0 0.0 28.4
2015-Jul-29 05:45N 17°56' W 164°19'2 0.9 28.4
2015-Jul-29 03:00N 17°54' W 164°18'0 0.0 28.5
2015-Jul-29 01:15N 17°54' W 164°18'2 9.6 28.5
2015-Jul-29 01:00N 17°52' W 164°16'1 0.3 28.6
2015-Jul-28 19:45N 17°52' W 164°14'1 0.4 28.3
2015-Jul-28 16:15N 17°51' W 164°13'0 0.0 28.3
2015-Jul-28 16:00N 17°51' W 164°13'1 2.6 28.3
2015-Jul-28 15:45N 17°51' W 164°13'0 0.0 28.3
2015-Jul-28 14:00N 17°51' W 164°12'3 0.7 28.3
2015-Jul-28 09:45N 17°50' W 164°09'0 0.0 28.4
2015-Jul-28 09:00N 17°50' W 164°09'0 0.0 28.3
2015-Jul-28 08:45N 17°50' W 164°09'2 1.3 28.3
2015-Jul-28 07:15N 17°51' W 164°07'0 0.1 28.4
2015-Jul-28 04:45N 17°51' W 164°08'1 0.7 28.5
2015-Jul-28 03:45N 17°50' W 164°08'2 0.4 28.6
2015-Jul-27 21:45N 17°49' W 164°05'0 0.0 28.4
2015-Jul-27 21:00N 17°49' W 164°05'0 0.0 28.3
2015-Jul-27 20:45N 17°49' W 164°05'1 0.2 28.3
2015-Jul-27 14:45N 17°48' W 164°04'1 1.4 28.2
2015-Jul-27 14:00N 17°48' W 164°04'3 0.4 28.2
2015-Jul-27 07:45N 17°46' W 164°01'0 0.3 28.3
2015-Jul-27 06:45N 17°47' W 164°01'1 0.2 28.4
2015-Jul-27 04:00N 17°46' W 164°01'0 0.0 28.5
2015-Jul-27 03:45N 17°46' W 164°01'1 0.8 28.5
2015-Jul-27 02:15N 17°45' W 164°00'2 0.9 28.5
2015-Jul-26 23:45N 17°44' W 163°58'0 0.1 28.5
2015-Jul-26 21:15N 17°44' W 163°58'0 0.0 28.3
2015-Jul-26 21:00N 17°44' W 163°58'1 2.9 28.3
2015-Jul-26 20:30N 17°44' W 163°57'1 0.9 28.2
2015-Jul-26 19:30N 17°43' W 163°56'0 0.0 28.2
2015-Jul-26 17:00N 17°43' W 163°56'1 2.9 28.2
2015-Jul-26 16:45N 17°44' W 163°55'0 0.0 28.2
2015-Jul-26 16:30N 17°44' W 163°55'0 0.0 28.2
2015-Jul-26 15:15N 17°44' W 163°55'1 2.3 28.2
2015-Jul-26 15:00N 17°43' W 163°56'0 0.5 28.2
2015-Jul-26 14:15N 17°43' W 163°56'0 0.0 28.2
2015-Jul-26 14:00N 17°43' W 163°56'1 0.8 28.2
2015-Jul-26 12:45N 17°42' W 163°55'0 0.0 28.2
2015-Jul-26 12:30N 17°42' W 163°55'1 0.5 28.2
2015-Jul-26 09:30N 17°41' W 163°54'0 0.2 28.3
2015-Jul-26 08:45N 17°41' W 163°54'1 0.9 28.3
2015-Jul-26 08:00N 17°41' W 163°54'1 4.7 28.3
2015-Jul-26 07:45N 17°41' W 163°52'0 0.2 28.3
2015-Jul-26 07:00N 17°41' W 163°52'1 0.7 28.3
2015-Jul-26 05:45N 17°42' W 163°53'0 0.2 28.3
2015-Jul-26 04:15N 17°42' W 163°53'0 1.7 28.4
2015-Jul-26 04:00N 17°42' W 163°52'0 0.0 28.4
2015-Jul-26 02:45N 17°42' W 163°52'0 0.0 28.4
2015-Jul-26 02:30N 17°42' W 163°52'0 0.0 28.4
2015-Jul-26 02:15N 17°42' W 163°52'1 1.1 28.4
2015-Jul-26 01:45N 17°41' W 163°52'0 0.0 28.4
2015-Jul-26 01:30N 17°41' W 163°52'1 0.4 28.4
2015-Jul-26 00:00N 17°41' W 163°52'1 2.3 28.4
2015-Jul-25 23:45N 17°40' W 163°51'1 0.4 28.4
2015-Jul-25 20:45N 17°39' W 163°51'0 0.5 28.3
2015-Jul-25 20:00N 17°39' W 163°50'0 0.0 28.2
2015-Jul-25 19:45N 17°39' W 163°50'1 0.2 28.2
2015-Jul-25 15:45N 17°39' W 163°49'1 0.5 28.2
2015-Jul-25 12:45N 17°38' W 163°50'3 0.8 28.3
2015-Jul-25 09:00N 17°35' W 163°48'1 0.8 28.3
2015-Jul-25 08:15N 17°35' W 163°47'0 0.4 28.3
2015-Jul-25 07:30N 17°35' W 163°48'1 4.9 28.3
2015-Jul-25 07:15N 17°35' W 163°46'0 0.0 28.3
2015-Jul-25 06:15N 17°35' W 163°46'0 0.2 28.3
2015-Jul-25 04:45N 17°35' W 163°46'0 0.0 28.4
2015-Jul-25 04:15N 17°35' W 163°46'1 0.5 28.4
2015-Jul-25 03:00N 17°35' W 163°46'1 0.8 28.5
2015-Jul-25 02:00N 17°35' W 163°45'0 0.0 28.4
2015-Jul-25 01:45N 17°35' W 163°45'2 1.1 28.4
2015-Jul-25 00:00N 17°34' W 163°44'2 0.2 28.4
2015-Jul-24 16:00N 17°35' W 163°42'0 0.0 28.3
2015-Jul-24 15:45N 17°35' W 163°42'4 0.2 28.3
2015-Jul-23 20:00N 17°30' W 163°41'0 0.0 28.3
2015-Jul-23 19:45N 17°30' W 163°41'0 0.0 28.3
2015-Jul-23 18:45N 17°30' W 163°41'   28.2
Track history (hours):
 
Tides and Currents Weather Stations Pressure Air Temp Water Temp Dewpoint Dewpoint Depression Visibility Wind Speed Wind Dir Waves Ship Positions

Drifting buoy 51523

Last reported at 2015-Aug-02 17:00 UTC. Time now 2015-Aug-02 20:25 UTC.
Position N 18°14' W 164°49'.

Water temperature 28.3 ° C

Date/timePositionNaut miles runAvg speedWind from/ knotsBaromVisibWave heightAir tempDewpointWater temp
2015-Aug-02 17:00N 18°14' W 164°49'0 0.3 28.3
2015-Aug-02 16:30N 18°14' W 164°49'0 0.3 28.3
2015-Aug-02 15:30N 18°14' W 164°49'0 0.0 28.3
2015-Aug-02 15:15N 18°14' W 164°49'0 0.5 28.3
2015-Aug-02 14:30N 18°14' W 164°49'1 0.5 28.3
2015-Aug-02 13:00N 18°14' W 164°49'0 0.0 28.3
2015-Aug-02 12:45N 18°14' W 164°49'1 0.5 28.3
2015-Aug-02 09:45N 18°12' W 164°48'0 0.6 28.3
2015-Aug-02 09:00N 18°12' W 164°47'0 0.0 28.3
2015-Aug-02 08:45N 18°12' W 164°47'0 0.3 28.3
2015-Aug-02 08:00N 18°12' W 164°48'0 0.0 28.4
2015-Aug-02 07:45N 18°12' W 164°48'1 1.0 28.4
2015-Aug-02 07:15N 18°12' W 164°47'0 0.0 28.4
2015-Aug-02 07:00N 18°12' W 164°47'1 0.4 28.4
2015-Aug-02 05:30N 18°12' W 164°47'0 0.0 28.4
2015-Aug-02 05:15N 18°12' W 164°47'0 0.8 28.4
2015-Aug-02 04:45N 18°12' W 164°46'0 0.0 28.5
2015-Aug-02 04:30N 18°12' W 164°46'1 3.8 28.5
2015-Aug-02 04:15N 18°11' W 164°45'1 1.5 28.5
2015-Aug-02 03:45N 18°11' W 164°46'0 0.2 28.5
2015-Aug-02 03:00N 18°11' W 164°46'0 0.0 28.5
2015-Aug-02 02:45N 18°11' W 164°46'0 0.5 28.5
2015-Aug-02 02:00N 18°11' W 164°46'0 0.2 28.5
2015-Aug-02 00:30N 18°11' W 164°45'1 3.0 28.4
2015-Aug-02 00:15N 18°12' W 164°45'1 0.3 28.4
2015-Aug-01 21:45N 18°12' W 164°44'0 0.0 28.3
2015-Aug-01 21:30N 18°12' W 164°44'0 0.0 28.3
2015-Aug-01 20:45N 18°12' W 164°44'1 2.2 28.3
2015-Aug-01 20:15N 18°13' W 164°44'1 3.5 28.3
2015-Aug-01 20:00N 18°12' W 164°44'1 1.2 28.3
2015-Aug-01 19:15N 18°13' W 164°44'0 0.0 28.3
2015-Aug-01 19:00N 18°13' W 164°44'0 0.0 28.3
2015-Aug-01 17:30N 18°13' W 164°44'0 0.0 28.3
2015-Aug-01 17:15N 18°13' W 164°44'0 0.5 28.3
2015-Aug-01 17:00N 18°13' W 164°44'1 0.7 28.3
2015-Aug-01 15:30N 18°13' W 164°45'0 0.0 28.3
2015-Aug-01 15:15N 18°13' W 164°45'0 0.0 28.3
2015-Aug-01 13:15N 18°13' W 164°45'1 3.7 28.3
2015-Aug-01 13:00N 18°13' W 164°45'0 0.0 28.3
2015-Aug-01 08:30N 18°13' W 164°45'0 1.0 28.4
2015-Aug-01 08:15N 18°12' W 164°45'0 0.3 28.4
2015-Aug-01 06:45N 18°12' W 164°45'0 0.0 28.4
2015-Aug-01 06:00N 18°12' W 164°45'0 0.0 28.4
2015-Aug-01 05:45N 18°12' W 164°45'1 1.7 28.4
2015-Aug-01 05:00N 18°11' W 164°45'0 0.0 28.4
2015-Aug-01 04:45N 18°11' W 164°45'6 0.5 28.4
2015-Jul-31 16:00N 18°06' W 164°40'313.3 28.3
2015-Jul-31 15:45N 18°06' W 164°37'0 0.0 28.3
2015-Jul-31 13:15N 18°06' W 164°37'0 0.0 28.3
2015-Jul-31 08:45N 18°06' W 164°37'1 0.8 28.3
2015-Jul-31 08:00N 18°06' W 164°36'1 2.7 28.4
2015-Jul-31 07:45N 18°06' W 164°35'1 0.2 28.3
2015-Jul-31 05:00N 18°06' W 164°35'0 0.0 28.4
2015-Jul-31 04:00N 18°06' W 164°35'1 1.4 28.4
2015-Jul-31 03:00N 18°05' W 164°34'1 0.1 28.4
2015-Jul-30 19:45N 18°04' W 164°33'0 0.1 28.3
2015-Jul-30 16:00N 18°04' W 164°33'1 1.3 28.3
2015-Jul-30 15:00N 18°03' W 164°33'3 1.0 28.3
2015-Jul-30 11:45N 18°00' W 164°32'0 0.1 28.3
2015-Jul-30 09:00N 18°00' W 164°32'1 1.3 28.3
2015-Jul-30 08:00N 17°59' W 164°31'6 0.8 28.3
2015-Jul-30 01:00N 17°57' W 164°25'0 0.0 28.4
2015-Jul-30 00:45N 17°57' W 164°25'2 0.3 28.4
2015-Jul-29 17:15N 17°56' W 164°23'0 0.9 28.3
2015-Jul-29 17:00N 17°56' W 164°24'0 1.4 28.3
2015-Jul-29 16:45N 17°56' W 164°23'1 1.0 28.3
2015-Jul-29 16:00N 17°56' W 164°23'2 0.5 28.3
2015-Jul-29 12:00N 17°56' W 164°21'1 0.3 28.3
2015-Jul-29 08:45N 17°56' W 164°20'0 0.0 28.4
2015-Jul-29 08:30N 17°56' W 164°20'1 0.7 28.4
2015-Jul-29 07:45N 17°56' W 164°19'0 0.5 28.4
2015-Jul-29 07:00N 17°56' W 164°19'0 0.0 28.4
2015-Jul-29 06:45N 17°56' W 164°19'0 0.0 28.4
2015-Jul-29 06:00N 17°56' W 164°19'0 0.0 28.4
2015-Jul-29 05:45N 17°56' W 164°19'2 0.9 28.4
2015-Jul-29 03:00N 17°54' W 164°18'0 0.0 28.5
2015-Jul-29 01:15N 17°54' W 164°18'2 9.6 28.5
2015-Jul-29 01:00N 17°52' W 164°16'1 0.3 28.6
2015-Jul-28 19:45N 17°52' W 164°14'1 0.4 28.3
2015-Jul-28 16:15N 17°51' W 164°13'0 0.0 28.3
2015-Jul-28 16:00N 17°51' W 164°13'1 2.6 28.3
2015-Jul-28 15:45N 17°51' W 164°13'0 0.0 28.3
2015-Jul-28 14:00N 17°51' W 164°12'3 0.7 28.3
2015-Jul-28 09:45N 17°50' W 164°09'0 0.0 28.4
2015-Jul-28 09:00N 17°50' W 164°09'0 0.0 28.3
2015-Jul-28 08:45N 17°50' W 164°09'2 1.3 28.3
2015-Jul-28 07:15N 17°51' W 164°07'0 0.1 28.4
2015-Jul-28 04:45N 17°51' W 164°08'1 0.7 28.5
2015-Jul-28 03:45N 17°50' W 164°08'2 0.4 28.6
2015-Jul-27 21:45N 17°49' W 164°05'0 0.0 28.4
2015-Jul-27 21:00N 17°49' W 164°05'0 0.0 28.3
2015-Jul-27 20:45N 17°49' W 164°05'1 0.2 28.3
2015-Jul-27 14:45N 17°48' W 164°04'1 1.4 28.2
2015-Jul-27 14:00N 17°48' W 164°04'3 0.4 28.2
2015-Jul-27 07:45N 17°46' W 164°01'0 0.3 28.3
2015-Jul-27 06:45N 17°47' W 164°01'1 0.2 28.4
2015-Jul-27 04:00N 17°46' W 164°01'0 0.0 28.5
2015-Jul-27 03:45N 17°46' W 164°01'1 0.8 28.5
2015-Jul-27 02:15N 17°45' W 164°00'2 0.9 28.5
2015-Jul-26 23:45N 17°44' W 163°58'0 0.1 28.5
2015-Jul-26 21:15N 17°44' W 163°58'0 0.0 28.3
2015-Jul-26 21:00N 17°44' W 163°58'1 2.9 28.3
2015-Jul-26 20:30N 17°44' W 163°57'1 0.9 28.2
2015-Jul-26 19:30N 17°43' W 163°56'0 0.0 28.2
2015-Jul-26 17:00N 17°43' W 163°56'1 2.9 28.2
2015-Jul-26 16:45N 17°44' W 163°55'0 0.0 28.2
2015-Jul-26 16:30N 17°44' W 163°55'0 0.0 28.2
2015-Jul-26 15:15N 17°44' W 163°55'1 2.3 28.2
2015-Jul-26 15:00N 17°43' W 163°56'0 0.5 28.2
2015-Jul-26 14:15N 17°43' W 163°56'0 0.0 28.2
2015-Jul-26 14:00N 17°43' W 163°56'1 0.8 28.2
2015-Jul-26 12:45N 17°42' W 163°55'0 0.0 28.2
2015-Jul-26 12:30N 17°42' W 163°55'1 0.5 28.2
2015-Jul-26 09:30N 17°41' W 163°54'0 0.2 28.3
2015-Jul-26 08:45N 17°41' W 163°54'1 0.9 28.3
2015-Jul-26 08:00N 17°41' W 163°54'1 4.7 28.3
2015-Jul-26 07:45N 17°41' W 163°52'0 0.2 28.3
2015-Jul-26 07:00N 17°41' W 163°52'1 0.7 28.3
2015-Jul-26 05:45N 17°42' W 163°53'0 0.2 28.3
2015-Jul-26 04:15N 17°42' W 163°53'0 1.7 28.4
2015-Jul-26 04:00N 17°42' W 163°52'0 0.0 28.4
2015-Jul-26 02:45N 17°42' W 163°52'0 0.0 28.4
2015-Jul-26 02:30N 17°42' W 163°52'0 0.0 28.4
2015-Jul-26 02:15N 17°42' W 163°52'1 1.1 28.4
2015-Jul-26 01:45N 17°41' W 163°52'0 0.0 28.4
2015-Jul-26 01:30N 17°41' W 163°52'1 0.4 28.4
2015-Jul-26 00:00N 17°41' W 163°52'1 2.3 28.4
2015-Jul-25 23:45N 17°40' W 163°51'1 0.4 28.4
2015-Jul-25 20:45N 17°39' W 163°51'0 0.5 28.3
2015-Jul-25 20:00N 17°39' W 163°50'0 0.0 28.2
2015-Jul-25 19:45N 17°39' W 163°50'1 0.2 28.2
2015-Jul-25 15:45N 17°39' W 163°49'1 0.5 28.2
2015-Jul-25 12:45N 17°38' W 163°50'3 0.8 28.3
2015-Jul-25 09:00N 17°35' W 163°48'1 0.8 28.3
2015-Jul-25 08:15N 17°35' W 163°47'0 0.4 28.3
2015-Jul-25 07:30N 17°35' W 163°48'1 4.9 28.3
2015-Jul-25 07:15N 17°35' W 163°46'0 0.0 28.3
2015-Jul-25 06:15N 17°35' W 163°46'0 0.2 28.3
2015-Jul-25 04:45N 17°35' W 163°46'0 0.0 28.4
2015-Jul-25 04:15N 17°35' W 163°46'1 0.5 28.4
2015-Jul-25 03:00N 17°35' W 163°46'1 0.8 28.5
2015-Jul-25 02:00N 17°35' W 163°45'0 0.0 28.4
2015-Jul-25 01:45N 17°35' W 163°45'2 1.1 28.4
2015-Jul-25 00:00N 17°34' W 163°44'2 0.2 28.4
2015-Jul-24 16:00N 17°35' W 163°42'0 0.0 28.3
2015-Jul-24 15:45N 17°35' W 163°42'4 0.2 28.3
2015-Jul-23 20:00N 17°30' W 163°41'0 0.0 28.3
2015-Jul-23 19:45N 17°30' W 163°41'0 0.0 28.3
2015-Jul-23 18:45N 17°30' W 163°41'   28.2

Dump ship's entire track history